KMGR/MGR METAR and TAF weather

Enter ICAO airport designator
Station Type Date Time Source
KMGR METAR 2020/11/28 20:10 UTC NOAA

KMGR 282010Z AUTO 01004KT 10SM OVC019 19/16 A3003 RMK AO2


Station Type Date Time Source
KMGR Decoded METAR 2020/11/28 20:10 UTC NOAA

Moultrie, Moultrie Municipal Airport, GA, United States (KMGR) 31-05-05N 083-48-11W
Nov 28, 2020 - 03:10 PM EST / 2020.11.28 2010 UTC
Wind: from the N (010 degrees) at 5 MPH (4 KT):0
Visibility: 10 mile(s):0
Sky conditions: overcast
Temperature: 66 F (19 C)
Dew Point: 60 F (16 C)
Relative Humidity: 82%
Pressure (altimeter): 30.03 in. Hg (1016 hPa)
ob: KMGR 282010Z AUTO 01004KT 10SM OVC019 19/16 A3003 RMK AO2
cycle: 20

Station Type Date Time Source
KMGR TAF UTC NOAA

Error!

Example: see airport list